sensor_id;sensor_type;location;lat;lon;timestamp;temperature;humidity
22290;DHT22;11313;50.116;8.424;2023-08-07T00:20:35;24.40;55.90
22290;DHT22;11313;50.116;8.424;2023-08-07T00:23:01;24.40;55.80
22290;DHT22;11313;50.116;8.424;2023-08-07T00:25:34;24.40;55.80
22290;DHT22;11313;50.116;8.424;2023-08-07T00:31:42;24.40;55.90
22290;DHT22;11313;50.116;8.424;2023-08-07T00:34:34;24.40;55.90
22290;DHT22;11313;50.116;8.424;2023-08-07T00:44:28;24.40;55.90
22290;DHT22;11313;50.116;8.424;2023-08-07T00:50:16;24.30;56.00
22290;DHT22;11313;50.116;8.424;2023-08-07T00:52:41;24.30;56.10
22290;DHT22;11313;50.116;8.424;2023-08-07T00:58:44;24.40;56.20
22290;DHT22;11313;50.116;8.424;2023-08-07T01:04:42;24.40;56.00
22290;DHT22;11313;50.116;8.424;2023-08-07T01:11:01;24.40;56.10
22290;DHT22;11313;50.116;8.424;2023-08-07T01:13:42;24.30;56.10
22290;DHT22;11313;50.116;8.424;2023-08-07T01:16:15;24.30;56.00
22290;DHT22;11313;50.116;8.424;2023-08-07T01:18:45;24.30;56.00
22290;DHT22;11313;50.116;8.424;2023-08-07T01:21:18;24.20;56.00
22290;DHT22;11313;50.116;8.424;2023-08-07T01:23:46;24.30;56.20
22290;DHT22;11313;50.116;8.424;2023-08-07T01:26:12;24.20;56.10
22290;DHT22;11313;50.116;8.424;2023-08-07T01:28:42;24.20;56.10
22290;DHT22;11313;50.116;8.424;2023-08-07T01:31:09;24.20;56.10
22290;DHT22;11313;50.116;8.424;2023-08-07T01:33:54;24.20;56.00
22290;DHT22;11313;50.116;8.424;2023-08-07T01:36:23;24.20;56.10
22290;DHT22;11313;50.116;8.424;2023-08-07T01:38:50;24.20;56.10
22290;DHT22;11313;50.116;8.424;2023-08-07T01:41:18;24.20;56.20
22290;DHT22;11313;50.116;8.424;2023-08-07T01:43:43;24.20;56.10
22290;DHT22;11313;50.116;8.424;2023-08-07T01:46:10;24.20;56.10
22290;DHT22;11313;50.116;8.424;2023-08-07T01:48:35;24.20;56.10
22290;DHT22;11313;50.116;8.424;2023-08-07T01:51:01;24.20;56.10
22290;DHT22;11313;50.116;8.424;2023-08-07T01:53:26;24.20;56.10
22290;DHT22;11313;50.116;8.424;2023-08-07T01:55:52;24.20;56.10
22290;DHT22;11313;50.116;8.424;2023-08-07T01:58:17;24.20;56.10
22290;DHT22;11313;50.116;8.424;2023-08-07T02:00:43;24.20;56.10
22290;DHT22;11313;50.116;8.424;2023-08-07T02:03:08;24.20;56.10
22290;DHT22;11313;50.116;8.424;2023-08-07T02:05:34;24.20;56.10
22290;DHT22;11313;50.116;8.424;2023-08-07T02:07:59;24.10;56.20
22290;DHT22;11313;50.116;8.424;2023-08-07T02:10:25;24.10;56.10
22290;DHT22;11313;50.116;8.424;2023-08-07T02:12:50;24.10;56.00
22290;DHT22;11313;50.116;8.424;2023-08-07T02:15:16;24.10;56.10
22290;DHT22;11313;50.116;8.424;2023-08-07T02:17:41;24.10;56.10
22290;DHT22;11313;50.116;8.424;2023-08-07T02:20:08;24.10;56.00
22290;DHT22;11313;50.116;8.424;2023-08-07T02:22:34;24.10;56.10
22290;DHT22;11313;50.116;8.424;2023-08-07T02:24:59;24.10;56.10
22290;DHT22;11313;50.116;8.424;2023-08-07T02:27:25;24.10;56.10
22290;DHT22;11313;50.116;8.424;2023-08-07T02:29:50;24.10;56.20
22290;DHT22;11313;50.116;8.424;2023-08-07T02:32:16;24.10;56.10
22290;DHT22;11313;50.116;8.424;2023-08-07T02:34:41;24.10;56.00
22290;DHT22;11313;50.116;8.424;2023-08-07T02:37:07;24.10;56.10
22290;DHT22;11313;50.116;8.424;2023-08-07T02:39:32;24.10;56.10
22290;DHT22;11313;50.116;8.424;2023-08-07T02:41:58;24.10;56.20
22290;DHT22;11313;50.116;8.424;2023-08-07T02:44:23;24.10;56.20
22290;DHT22;11313;50.116;8.424;2023-08-07T02:46:49;24.10;56.20
22290;DHT22;11313;50.116;8.424;2023-08-07T02:49:14;24.10;56.20
22290;DHT22;11313;50.116;8.424;2023-08-07T02:51:40;24.00;56.10
22290;DHT22;11313;50.116;8.424;2023-08-07T02:54:05;24.10;56.20
22290;DHT22;11313;50.116;8.424;2023-08-07T02:56:31;24.10;56.20
22290;DHT22;11313;50.116;8.424;2023-08-07T02:58:58;24.10;56.20
22290;DHT22;11313;50.116;8.424;2023-08-07T03:01:24;24.10;56.20
22290;DHT22;11313;50.116;8.424;2023-08-07T03:03:50;24.00;56.10
22290;DHT22;11313;50.116;8.424;2023-08-07T03:06:15;24.00;56.10
22290;DHT22;11313;50.116;8.424;2023-08-07T03:08:41;24.00;56.20
22290;DHT22;11313;50.116;8.424;2023-08-07T03:11:08;24.00;56.20
22290;DHT22;11313;50.116;8.424;2023-08-07T03:13:33;24.00;56.20
22290;DHT22;11313;50.116;8.424;2023-08-07T03:16:04;24.00;56.20
22290;DHT22;11313;50.116;8.424;2023-08-07T03:18:30;24.10;56.20
22290;DHT22;11313;50.116;8.424;2023-08-07T03:20:56;24.00;56.20
22290;DHT22;11313;50.116;8.424;2023-08-07T03:23:22;24.00;56.20
22290;DHT22;11313;50.116;8.424;2023-08-07T03:25:48;24.00;56.20
22290;DHT22;11313;50.116;8.424;2023-08-07T03:28:13;24.00;56.10
22290;DHT22;11313;50.116;8.424;2023-08-07T03:30:39;24.00;56.00
22290;DHT22;11313;50.116;8.424;2023-08-07T03:33:04;24.00;56.10
22290;DHT22;11313;50.116;8.424;2023-08-07T03:35:30;24.00;56.20
22290;DHT22;11313;50.116;8.424;2023-08-07T03:37:55;23.90;56.00
22290;DHT22;11313;50.116;8.424;2023-08-07T03:40:21;23.90;56.00
22290;DHT22;11313;50.116;8.424;2023-08-07T03:42:46;23.90;56.10
22290;DHT22;11313;50.116;8.424;2023-08-07T03:45:12;23.90;56.00
22290;DHT22;11313;50.116;8.424;2023-08-07T03:47:37;23.90;56.00
22290;DHT22;11313;50.116;8.424;2023-08-07T03:50:03;23.90;56.00
22290;DHT22;11313;50.116;8.424;2023-08-07T03:52:29;23.90;56.00
22290;DHT22;11313;50.116;8.424;2023-08-07T03:54:54;23.90;56.00
22290;DHT22;11313;50.116;8.424;2023-08-07T03:57:20;23.90;55.90
22290;DHT22;11313;50.116;8.424;2023-08-07T03:59:45;23.90;55.90
22290;DHT22;11313;50.116;8.424;2023-08-07T04:02:11;23.90;55.90
22290;DHT22;11313;50.116;8.424;2023-08-07T04:04:36;23.90;55.80
22290;DHT22;11313;50.116;8.424;2023-08-07T04:07:02;23.90;55.80
22290;DHT22;11313;50.116;8.424;2023-08-07T04:09:27;23.90;55.90
22290;DHT22;11313;50.116;8.424;2023-08-07T04:11:53;23.90;55.80
22290;DHT22;11313;50.116;8.424;2023-08-07T04:14:19;23.90;55.90
22290;DHT22;11313;50.116;8.424;2023-08-07T04:16:44;23.90;55.80
22290;DHT22;11313;50.116;8.424;2023-08-07T04:19:10;23.90;55.90
22290;DHT22;11313;50.116;8.424;2023-08-07T04:21:36;23.90;55.70
22290;DHT22;11313;50.116;8.424;2023-08-07T04:24:01;23.80;55.30
22290;DHT22;11313;50.116;8.424;2023-08-07T04:26:33;23.80;55.50
22290;DHT22;11313;50.116;8.424;2023-08-07T04:28:59;23.80;55.40
22290;DHT22;11313;50.116;8.424;2023-08-07T04:31:25;23.80;55.20
22290;DHT22;11313;50.116;8.424;2023-08-07T04:33:50;23.80;55.20
22290;DHT22;11313;50.116;8.424;2023-08-07T04:36:16;23.80;55.10
22290;DHT22;11313;50.116;8.424;2023-08-07T04:38:41;23.80;55.20
22290;DHT22;11313;50.116;8.424;2023-08-07T04:41:07;23.80;54.80
22290;DHT22;11313;50.116;8.424;2023-08-07T04:43:32;23.80;54.80
22290;DHT22;11313;50.116;8.424;2023-08-07T04:45:58;23.80;54.90
22290;DHT22;11313;50.116;8.424;2023-08-07T04:48:23;23.80;55.10
22290;DHT22;11313;50.116;8.424;2023-08-07T04:50:50;23.80;54.90
22290;DHT22;11313;50.116;8.424;2023-08-07T04:53:16;23.80;55.10
22290;DHT22;11313;50.116;8.424;2023-08-07T04:55:41;23.80;55.10
22290;DHT22;11313;50.116;8.424;2023-08-07T04:58:07;23.80;55.20
22290;DHT22;11313;50.116;8.424;2023-08-07T05:00:33;23.80;55.10
22290;DHT22;11313;50.116;8.424;2023-08-07T05:02:58;23.80;54.60
22290;DHT22;11313;50.116;8.424;2023-08-07T05:05:24;23.70;54.60
22290;DHT22;11313;50.116;8.424;2023-08-07T05:07:49;23.70;54.60
22290;DHT22;11313;50.116;8.424;2023-08-07T05:10:15;23.70;54.70
22290;DHT22;11313;50.116;8.424;2023-08-07T05:12:40;23.70;54.60
22290;DHT22;11313;50.116;8.424;2023-08-07T05:15:06;23.70;54.50
22290;DHT22;11313;50.116;8.424;2023-08-07T05:17:32;23.70;54.40
22290;DHT22;11313;50.116;8.424;2023-08-07T05:19:58;23.70;54.40
22290;DHT22;11313;50.116;8.424;2023-08-07T05:22:23;23.70;54.70
22290;DHT22;11313;50.116;8.424;2023-08-07T05:24:49;23.70;54.50
22290;DHT22;11313;50.116;8.424;2023-08-07T05:27:14;23.70;54.40
22290;DHT22;11313;50.116;8.424;2023-08-07T05:29:40;23.70;54.20
22290;DHT22;11313;50.116;8.424;2023-08-07T05:32:12;23.70;54.60
22290;DHT22;11313;50.116;8.424;2023-08-07T05:34:38;23.70;54.60
22290;DHT22;11313;50.116;8.424;2023-08-07T05:37:05;23.70;54.60
22290;DHT22;11313;50.116;8.424;2023-08-07T05:39:31;23.70;54.60
22290;DHT22;11313;50.116;8.424;2023-08-07T05:41:56;23.70;54.60
22290;DHT22;11313;50.116;8.424;2023-08-07T05:44:26;23.70;54.60
22290;DHT22;11313;50.116;8.424;2023-08-07T05:46:51;23.70;54.60
22290;DHT22;11313;50.116;8.424;2023-08-07T05:49:17;23.70;54.60
22290;DHT22;11313;50.116;8.424;2023-08-07T05:51:43;23.70;54.60
22290;DHT22;11313;50.116;8.424;2023-08-07T05:54:08;23.70;54.70
22290;DHT22;11313;50.116;8.424;2023-08-07T05:56:34;23.70;54.60
22290;DHT22;11313;50.116;8.424;2023-08-07T05:59:00;23.70;54.60
22290;DHT22;11313;50.116;8.424;2023-08-07T06:01:25;23.70;54.60
22290;DHT22;11313;50.116;8.424;2023-08-07T06:03:57;23.70;54.80
22290;DHT22;11313;50.116;8.424;2023-08-07T06:06:22;23.70;54.50
22290;DHT22;11313;50.116;8.424;2023-08-07T06:08:48;23.70;54.70
22290;DHT22;11313;50.116;8.424;2023-08-07T06:11:14;23.70;54.80
22290;DHT22;11313;50.116;8.424;2023-08-07T06:13:42;23.70;54.70
22290;DHT22;11313;50.116;8.424;2023-08-07T06:16:08;23.70;54.70
22290;DHT22;11313;50.116;8.424;2023-08-07T06:18:33;23.70;54.70
22290;DHT22;11313;50.116;8.424;2023-08-07T06:21:00;23.70;54.70
22290;DHT22;11313;50.116;8.424;2023-08-07T06:23:25;23.70;54.70
22290;DHT22;11313;50.116;8.424;2023-08-07T06:25:51;23.70;54.80
22290;DHT22;11313;50.116;8.424;2023-08-07T06:28:16;23.70;54.80
22290;DHT22;11313;50.116;8.424;2023-08-07T06:30:42;23.70;55.40
22290;DHT22;11313;50.116;8.424;2023-08-07T06:33:07;23.70;54.60
22290;DHT22;11313;50.116;8.424;2023-08-07T06:35:40;23.70;54.70
22290;DHT22;11313;50.116;8.424;2023-08-07T06:38:08;23.70;55.40
22290;DHT22;11313;50.116;8.424;2023-08-07T06:40:35;23.70;54.70
22290;DHT22;11313;50.116;8.424;2023-08-07T06:43:00;23.70;54.70
22290;DHT22;11313;50.116;8.424;2023-08-07T06:45:26;23.70;54.70
22290;DHT22;11313;50.116;8.424;2023-08-07T06:47:51;23.70;54.40
22290;DHT22;11313;50.116;8.424;2023-08-07T06:50:17;23.70;54.50
22290;DHT22;11313;50.116;8.424;2023-08-07T06:52:42;23.70;54.40
22290;DHT22;11313;50.116;8.424;2023-08-07T06:55:08;23.70;54.50
22290;DHT22;11313;50.116;8.424;2023-08-07T06:57:34;23.70;54.60
22290;DHT22;11313;50.116;8.424;2023-08-07T07:00:00;23.70;55.30
22290;DHT22;11313;50.116;8.424;2023-08-07T07:02:25;23.70;54.60
22290;DHT22;11313;50.116;8.424;2023-08-07T07:04:51;23.70;54.70
22290;DHT22;11313;50.116;8.424;2023-08-07T07:07:16;23.70;54.70
22290;DHT22;11313;50.116;8.424;2023-08-07T07:09:42;23.70;54.60
22290;DHT22;11313;50.116;8.424;2023-08-07T07:12:08;23.70;54.60
22290;DHT22;11313;50.116;8.424;2023-08-07T07:14:33;23.70;54.70
22290;DHT22;11313;50.116;8.424;2023-08-07T07:16:59;23.70;54.70
22290;DHT22;11313;50.116;8.424;2023-08-07T07:19:25;23.70;54.70
22290;DHT22;11313;50.116;8.424;2023-08-07T07:21:51;23.70;54.70
22290;DHT22;11313;50.116;8.424;2023-08-07T07:24:17;23.70;54.60
22290;DHT22;11313;50.116;8.424;2023-08-07T07:26:42;23.70;54.60
22290;DHT22;11313;50.116;8.424;2023-08-07T07:29:08;23.70;54.40
22290;DHT22;11313;50.116;8.424;2023-08-07T07:31:33;23.70;54.60
22290;DHT22;11313;50.116;8.424;2023-08-07T07:33:59;23.70;54.50
22290;DHT22;11313;50.116;8.424;2023-08-07T07:36:24;23.70;54.30
22290;DHT22;11313;50.116;8.424;2023-08-07T07:38:50;23.70;54.50
22290;DHT22;11313;50.116;8.424;2023-08-07T07:41:16;23.70;54.50
22290;DHT22;11313;50.116;8.424;2023-08-07T07:43:41;23.70;54.50
22290;DHT22;11313;50.116;8.424;2023-08-07T07:46:07;23.70;54.60
22290;DHT22;11313;50.116;8.424;2023-08-07T07:48:33;23.70;54.60
22290;DHT22;11313;50.116;8.424;2023-08-07T07:51:02;23.70;54.60
22290;DHT22;11313;50.116;8.424;2023-08-07T07:53:28;23.60;54.40
22290;DHT22;11313;50.116;8.424;2023-08-07T07:55:54;23.70;55.20
22290;DHT22;11313;50.116;8.424;2023-08-07T07:58:20;23.70;54.50
22290;DHT22;11313;50.116;8.424;2023-08-07T08:00:46;23.70;54.50
22290;DHT22;11313;50.116;8.424;2023-08-07T08:03:11;23.70;54.40
22290;DHT22;11313;50.116;8.424;2023-08-07T08:05:38;23.70;54.50
22290;DHT22;11313;50.116;8.424;2023-08-07T08:08:03;23.70;54.30
22290;DHT22;11313;50.116;8.424;2023-08-07T08:10:29;23.70;54.10
22290;DHT22;11313;50.116;8.424;2023-08-07T08:12:55;23.70;54.30
22290;DHT22;11313;50.116;8.424;2023-08-07T08:15:22;23.70;54.40
22290;DHT22;11313;50.116;8.424;2023-08-07T08:17:48;23.70;54.40
22290;DHT22;11313;50.116;8.424;2023-08-07T08:20:14;23.60;54.30
22290;DHT22;11313;50.116;8.424;2023-08-07T08:22:41;23.70;54.40
22290;DHT22;11313;50.116;8.424;2023-08-07T08:25:06;23.60;54.30
22290;DHT22;11313;50.116;8.424;2023-08-07T08:27:32;23.70;54.40
22290;DHT22;11313;50.116;8.424;2023-08-07T08:29:58;23.70;54.40
22290;DHT22;11313;50.116;8.424;2023-08-07T08:32:23;23.70;54.40
22290;DHT22;11313;50.116;8.424;2023-08-07T08:34:49;23.70;54.30
22290;DHT22;11313;50.116;8.424;2023-08-07T08:37:15;23.70;54.30
22290;DHT22;11313;50.116;8.424;2023-08-07T08:39:40;23.70;54.40
22290;DHT22;11313;50.116;8.424;2023-08-07T08:42:08;23.70;54.30
22290;DHT22;11313;50.116;8.424;2023-08-07T08:44:36;23.60;54.20
22290;DHT22;11313;50.116;8.424;2023-08-07T08:47:04;23.70;54.30
22290;DHT22;11313;50.116;8.424;2023-08-07T08:49:36;23.60;54.10
22290;DHT22;11313;50.116;8.424;2023-08-07T08:52:03;23.70;54.20
22290;DHT22;11313;50.116;8.424;2023-08-07T08:54:30;23.60;54.20
22290;DHT22;11313;50.116;8.424;2023-08-07T08:56:57;23.60;54.20
22290;DHT22;11313;50.116;8.424;2023-08-07T08:59:25;23.60;54.20
22290;DHT22;11313;50.116;8.424;2023-08-07T09:01:51;23.60;54.20
22290;DHT22;11313;50.116;8.424;2023-08-07T09:04:18;23.60;54.20
22290;DHT22;11313;50.116;8.424;2023-08-07T09:06:44;23.60;54.20
22290;DHT22;11313;50.116;8.424;2023-08-07T09:09:11;23.60;54.20
22290;DHT22;11313;50.116;8.424;2023-08-07T09:11:37;23.60;54.20
22290;DHT22;11313;50.116;8.424;2023-08-07T09:14:03;23.60;54.10
22290;DHT22;11313;50.116;8.424;2023-08-07T09:16:30;23.60;54.10
22290;DHT22;11313;50.116;8.424;2023-08-07T09:18:56;23.60;54.20
22290;DHT22;11313;50.116;8.424;2023-08-07T09:21:21;23.60;54.20
22290;DHT22;11313;50.116;8.424;2023-08-07T09:23:47;23.60;54.00
22290;DHT22;11313;50.116;8.424;2023-08-07T09:26:12;23.60;54.20
22290;DHT22;11313;50.116;8.424;2023-08-07T09:28:38;23.60;54.20
22290;DHT22;11313;50.116;8.424;2023-08-07T09:31:06;23.60;54.20
22290;DHT22;11313;50.116;8.424;2023-08-07T09:33:33;23.60;54.20
22290;DHT22;11313;50.116;8.424;2023-08-07T09:36:00;23.60;54.20
22290;DHT22;11313;50.116;8.424;2023-08-07T09:38:30;23.60;54.30
22290;DHT22;11313;50.116;8.424;2023-08-07T09:40:59;23.60;54.20
22290;DHT22;11313;50.116;8.424;2023-08-07T09:43:25;23.60;54.20
22290;DHT22;11313;50.116;8.424;2023-08-07T09:45:51;23.60;54.00
22290;DHT22;11313;50.116;8.424;2023-08-07T09:48:23;23.60;54.10
22290;DHT22;11313;50.116;8.424;2023-08-07T09:50:50;23.60;54.10
22290;DHT22;11313;50.116;8.424;2023-08-07T09:53:16;23.60;54.20
22290;DHT22;11313;50.116;8.424;2023-08-07T09:55:41;23.60;54.10
22290;DHT22;11313;50.116;8.424;2023-08-07T09:58:08;23.60;54.20
22290;DHT22;11313;50.116;8.424;2023-08-07T10:00:36;23.60;54.30
22290;DHT22;11313;50.116;8.424;2023-08-07T10:03:03;23.60;54.30
22290;DHT22;11313;50.116;8.424;2023-08-07T10:05:30;23.60;54.40
22290;DHT22;11313;50.116;8.424;2023-08-07T10:07:55;23.60;54.30
22290;DHT22;11313;50.116;8.424;2023-08-07T10:10:22;23.60;54.30
22290;DHT22;11313;50.116;8.424;2023-08-07T10:12:50;23.60;54.40
22290;DHT22;11313;50.116;8.424;2023-08-07T10:15:19;23.60;54.30
22290;DHT22;11313;50.116;8.424;2023-08-07T10:17:44;23.60;54.30
22290;DHT22;11313;50.116;8.424;2023-08-07T10:20:11;23.60;54.30
22290;DHT22;11313;50.116;8.424;2023-08-07T10:22:38;23.60;54.30
22290;DHT22;11313;50.116;8.424;2023-08-07T10:25:06;23.60;54.30
22290;DHT22;11313;50.116;8.424;2023-08-07T10:27:36;23.60;54.30
22290;DHT22;11313;50.116;8.424;2023-08-07T10:30:05;23.60;54.40
22290;DHT22;11313;50.116;8.424;2023-08-07T10:32:31;23.60;54.40
22290;DHT22;11313;50.116;8.424;2023-08-07T10:34:58;23.60;54.30
22290;DHT22;11313;50.116;8.424;2023-08-07T10:37:40;23.60;54.30
22290;DHT22;11313;50.116;8.424;2023-08-07T10:40:07;23.60;54.40
22290;DHT22;11313;50.116;8.424;2023-08-07T10:45:20;23.60;54.40
22290;DHT22;11313;50.116;8.424;2023-08-07T10:48:01;23.60;54.40
22290;DHT22;11313;50.116;8.424;2023-08-07T10:50:35;23.60;54.40
22290;DHT22;11313;50.116;8.424;2023-08-07T10:53:02;23.60;54.50
22290;DHT22;11313;50.116;8.424;2023-08-07T10:55:43;23.60;54.40
22290;DHT22;11313;50.116;8.424;2023-08-07T10:58:22;23.60;54.40
22290;DHT22;11313;50.116;8.424;2023-08-07T11:00:48;23.60;54.30
22290;DHT22;11313;50.116;8.424;2023-08-07T11:03:25;23.60;54.40
22290;DHT22;11313;50.116;8.424;2023-08-07T11:05:51;23.60;54.40
22290;DHT22;11313;50.116;8.424;2023-08-07T11:08:22;23.60;54.40
22290;DHT22;11313;50.116;8.424;2023-08-07T11:10:47;23.60;54.40
22290;DHT22;11313;50.116;8.424;2023-08-07T11:13:13;23.60;54.40
22290;DHT22;11313;50.116;8.424;2023-08-07T11:15:38;23.60;54.50
22290;DHT22;11313;50.116;8.424;2023-08-07T11:18:04;23.60;54.50
22290;DHT22;11313;50.116;8.424;2023-08-07T11:20:30;23.60;54.50
22290;DHT22;11313;50.116;8.424;2023-08-07T11:22:55;23.60;54.50
22290;DHT22;11313;50.116;8.424;2023-08-07T11:25:21;23.60;55.00
22290;DHT22;11313;50.116;8.424;2023-08-07T11:27:46;23.60;54.50
22290;DHT22;11313;50.116;8.424;2023-08-07T11:30:12;23.60;54.60
22290;DHT22;11313;50.116;8.424;2023-08-07T11:32:38;23.60;54.60
22290;DHT22;11313;50.116;8.424;2023-08-07T11:35:04;23.60;54.60
22290;DHT22;11313;50.116;8.424;2023-08-07T11:37:30;23.60;55.20
22290;DHT22;11313;50.116;8.424;2023-08-07T11:40:02;23.60;54.50
22290;DHT22;11313;50.116;8.424;2023-08-07T11:42:28;23.60;54.50
22290;DHT22;11313;50.116;8.424;2023-08-07T11:44:54;23.60;54.50
22290;DHT22;11313;50.116;8.424;2023-08-07T11:47:20;23.60;54.50
22290;DHT22;11313;50.116;8.424;2023-08-07T11:49:45;23.60;54.50
22290;DHT22;11313;50.116;8.424;2023-08-07T11:52:11;23.60;54.40
22290;DHT22;11313;50.116;8.424;2023-08-07T11:54:39;23.60;54.50
22290;DHT22;11313;50.116;8.424;2023-08-07T11:57:17;23.60;54.60
22290;DHT22;11313;50.116;8.424;2023-08-07T11:59:46;23.60;54.60
22290;DHT22;11313;50.116;8.424;2023-08-07T12:02:12;23.60;54.60
22290;DHT22;11313;50.116;8.424;2023-08-07T12:04:38;23.60;54.50
22290;DHT22;11313;50.116;8.424;2023-08-07T12:07:03;23.60;54.30
22290;DHT22;11313;50.116;8.424;2023-08-07T12:09:30;23.60;54.30
22290;DHT22;11313;50.116;8.424;2023-08-07T12:11:59;23.60;54.40
22290;DHT22;11313;50.116;8.424;2023-08-07T12:14:31;23.60;54.30
22290;DHT22;11313;50.116;8.424;2023-08-07T12:16:56;23.60;54.30
22290;DHT22;11313;50.116;8.424;2023-08-07T12:19:22;23.60;54.20
22290;DHT22;11313;50.116;8.424;2023-08-07T12:21:48;23.60;54.20
22290;DHT22;11313;50.116;8.424;2023-08-07T12:24:13;23.60;54.20
22290;DHT22;11313;50.116;8.424;2023-08-07T12:26:39;23.60;54.40
22290;DHT22;11313;50.116;8.424;2023-08-07T12:29:04;23.60;54.30
22290;DHT22;11313;50.116;8.424;2023-08-07T12:31:30;23.60;54.20
22290;DHT22;11313;50.116;8.424;2023-08-07T12:33:55;23.60;54.20
22290;DHT22;11313;50.116;8.424;2023-08-07T12:36:21;23.60;54.40
22290;DHT22;11313;50.116;8.424;2023-08-07T12:38:46;23.60;54.30
22290;DHT22;11313;50.116;8.424;2023-08-07T12:41:12;23.60;54.20
22290;DHT22;11313;50.116;8.424;2023-08-07T12:43:39;23.60;54.00
22290;DHT22;11313;50.116;8.424;2023-08-07T12:46:04;23.60;54.10
22290;DHT22;11313;50.116;8.424;2023-08-07T12:48:30;23.60;54.30
22290;DHT22;11313;50.116;8.424;2023-08-07T12:50:55;23.60;54.20
22290;DHT22;11313;50.116;8.424;2023-08-07T12:53:21;23.60;54.20
22290;DHT22;11313;50.116;8.424;2023-08-07T12:55:46;23.60;54.10
22290;DHT22;11313;50.116;8.424;2023-08-07T12:58:12;23.60;54.00
22290;DHT22;11313;50.116;8.424;2023-08-07T13:00:37;23.60;54.20
22290;DHT22;11313;50.116;8.424;2023-08-07T13:03:03;23.60;54.20
22290;DHT22;11313;50.116;8.424;2023-08-07T13:05:29;23.60;54.20
22290;DHT22;11313;50.116;8.424;2023-08-07T13:07:56;23.60;54.30
22290;DHT22;11313;50.116;8.424;2023-08-07T13:10:24;23.60;54.30
22290;DHT22;11313;50.116;8.424;2023-08-07T13:12:50;23.70;54.40
22290;DHT22;11313;50.116;8.424;2023-08-07T13:15:16;23.60;54.40
22290;DHT22;11313;50.116;8.424;2023-08-07T13:17:43;23.60;54.20
22290;DHT22;11313;50.116;8.424;2023-08-07T13:20:10;23.60;54.20
22290;DHT22;11313;50.116;8.424;2023-08-07T13:22:38;23.60;54.30
22290;DHT22;11313;50.116;8.424;2023-08-07T13:25:05;23.60;54.10
22290;DHT22;11313;50.116;8.424;2023-08-07T13:27:34;23.60;54.10
22290;DHT22;11313;50.116;8.424;2023-08-07T13:30:00;23.60;54.10
22290;DHT22;11313;50.116;8.424;2023-08-07T13:32:26;23.60;54.20
22290;DHT22;11313;50.116;8.424;2023-08-07T13:34:52;23.60;54.10
22290;DHT22;11313;50.116;8.424;2023-08-07T13:37:18;23.60;54.20
22290;DHT22;11313;50.116;8.424;2023-08-07T13:39:43;23.60;54.10
22290;DHT22;11313;50.116;8.424;2023-08-07T13:42:09;23.60;54.00
22290;DHT22;11313;50.116;8.424;2023-08-07T13:44:36;23.60;54.00
22290;DHT22;11313;50.116;8.424;2023-08-07T13:47:02;23.60;53.90
22290;DHT22;11313;50.116;8.424;2023-08-07T13:49:27;23.60;53.90
22290;DHT22;11313;50.116;8.424;2023-08-07T13:51:54;23.60;53.90
22290;DHT22;11313;50.116;8.424;2023-08-07T13:54:19;23.60;54.00
22290;DHT22;11313;50.116;8.424;2023-08-07T13:56:45;23.60;54.00
22290;DHT22;11313;50.116;8.424;2023-08-07T13:59:10;23.60;54.00
22290;DHT22;11313;50.116;8.424;2023-08-07T14:01:36;23.60;53.80
22290;DHT22;11313;50.116;8.424;2023-08-07T14:04:02;23.60;53.90
22290;DHT22;11313;50.116;8.424;2023-08-07T14:06:28;23.60;54.10
22290;DHT22;11313;50.116;8.424;2023-08-07T14:08:53;23.60;54.10
22290;DHT22;11313;50.116;8.424;2023-08-07T14:11:19;23.60;54.20
22290;DHT22;11313;50.116;8.424;2023-08-07T14:13:45;23.60;54.20
22290;DHT22;11313;50.116;8.424;2023-08-07T14:16:12;23.60;54.20
22290;DHT22;11313;50.116;8.424;2023-08-07T14:18:37;23.60;54.10
22290;DHT22;11313;50.116;8.424;2023-08-07T14:21:03;23.60;54.10
22290;DHT22;11313;50.116;8.424;2023-08-07T14:23:29;23.60;54.00
22290;DHT22;11313;50.116;8.424;2023-08-07T14:25:54;23.60;53.90
22290;DHT22;11313;50.116;8.424;2023-08-07T14:28:20;23.60;53.80
22290;DHT22;11313;50.116;8.424;2023-08-07T14:30:45;23.60;53.80
22290;DHT22;11313;50.116;8.424;2023-08-07T14:33:11;23.60;53.20
22290;DHT22;11313;50.116;8.424;2023-08-07T14:35:37;23.60;53.10
22290;DHT22;11313;50.116;8.424;2023-08-07T14:38:02;23.60;54.10
22290;DHT22;11313;50.116;8.424;2023-08-07T14:40:28;23.60;53.70
22290;DHT22;11313;50.116;8.424;2023-08-07T14:42:54;23.60;53.50
22290;DHT22;11313;50.116;8.424;2023-08-07T14:45:20;23.60;53.60
22290;DHT22;11313;50.116;8.424;2023-08-07T14:47:47;23.60;53.80
22290;DHT22;11313;50.116;8.424;2023-08-07T14:50:13;23.60;53.90
22290;DHT22;11313;50.116;8.424;2023-08-07T14:52:39;23.60;53.70
22290;DHT22;11313;50.116;8.424;2023-08-07T14:55:04;23.60;53.60
22290;DHT22;11313;50.116;8.424;2023-08-07T14:57:30;23.60;53.60
22290;DHT22;11313;50.116;8.424;2023-08-07T14:59:56;23.60;53.60
22290;DHT22;11313;50.116;8.424;2023-08-07T15:02:21;23.60;53.60
22290;DHT22;11313;50.116;8.424;2023-08-07T15:04:46;23.60;53.40
22290;DHT22;11313;50.116;8.424;2023-08-07T15:07:12;23.60;53.30
22290;DHT22;11313;50.116;8.424;2023-08-07T15:09:38;23.60;53.50
22290;DHT22;11313;50.116;8.424;2023-08-07T15:12:04;23.60;53.50
22290;DHT22;11313;50.116;8.424;2023-08-07T15:14:32;23.60;53.60
22290;DHT22;11313;50.116;8.424;2023-08-07T15:16:58;23.60;53.60
22290;DHT22;11313;50.116;8.424;2023-08-07T15:19:23;23.60;53.60
22290;DHT22;11313;50.116;8.424;2023-08-07T15:21:50;23.60;53.40
22290;DHT22;11313;50.116;8.424;2023-08-07T15:24:16;23.60;53.90
22290;DHT22;11313;50.116;8.424;2023-08-07T15:26:41;23.60;53.20
22290;DHT22;11313;50.116;8.424;2023-08-07T15:29:07;23.60;53.30
22290;DHT22;11313;50.116;8.424;2023-08-07T15:31:32;23.60;53.20
22290;DHT22;11313;50.116;8.424;2023-08-07T15:33:58;23.60;53.30
22290;DHT22;11313;50.116;8.424;2023-08-07T15:36:23;23.60;53.50
22290;DHT22;11313;50.116;8.424;2023-08-07T15:38:49;23.60;53.60
22290;DHT22;11313;50.116;8.424;2023-08-07T15:41:15;23.60;53.70
22290;DHT22;11313;50.116;8.424;2023-08-07T15:43:40;23.70;53.60
22290;DHT22;11313;50.116;8.424;2023-08-07T15:46:06;23.60;53.60
22290;DHT22;11313;50.116;8.424;2023-08-07T15:48:31;23.60;53.70
22290;DHT22;11313;50.116;8.424;2023-08-07T15:50:57;23.60;53.80
22290;DHT22;11313;50.116;8.424;2023-08-07T15:53:22;23.60;53.80
22290;DHT22;11313;50.116;8.424;2023-08-07T15:55:48;23.60;53.90
22290;DHT22;11313;50.116;8.424;2023-08-07T15:58:14;23.60;54.00
22290;DHT22;11313;50.116;8.424;2023-08-07T16:00:40;23.60;53.90
22290;DHT22;11313;50.116;8.424;2023-08-07T16:03:06;23.60;54.00
22290;DHT22;11313;50.116;8.424;2023-08-07T16:05:32;23.60;54.00
22290;DHT22;11313;50.116;8.424;2023-08-07T16:07:58;23.60;54.60
22290;DHT22;11313;50.116;8.424;2023-08-07T16:10:24;23.60;53.90
22290;DHT22;11313;50.116;8.424;2023-08-07T16:12:52;23.60;53.90